Time;durP1;ratioP1;P1;durP2;ratioP2;P2;SDS_P1;SDS_P2;PMS_P1;PMS_P2;Temp;Humidity;BMP_temperature;BMP_pressure;BME280_temperature;BME280_humidity;BME280_pressure;Samples;Min_cycle;Max_cycle;Signal;HPM_P1;HPM_P2
2023/08/23 00:01:59;;;;;;;8.32;4.93;;;17.50;99.90;;;;;;5028729;28;20076;-72
2023/08/23 00:04:25;;;;;;;8.13;4.32;;;17.40;99.90;;;;;;5041823;28;20058;-71
2023/08/23 00:06:50;;;;;;;7.05;4.40;;;17.40;99.90;;;;;;5021740;28;20575;-72
2023/08/23 00:09:16;;;;;;;9.75;4.90;;;17.40;99.90;;;;;;5041901;28;20037;-72
2023/08/23 00:11:45;;;;;;;7.72;4.63;;;17.40;99.90;;;;;;5041669;28;20501;-71
2023/08/23 00:14:10;;;;;;;8.70;4.75;;;17.40;99.90;;;;;;5040941;28;20529;-72
2023/08/23 00:16:36;;;;;;;7.50;4.53;;;17.30;99.90;;;;;;5028546;28;20120;-71
2023/08/23 00:19:02;;;;;;;10.27;5.47;;;17.30;99.90;;;;;;5043567;28;20067;-72
2023/08/23 00:21:28;;;;;;;8.55;5.20;;;17.30;99.90;;;;;;5024761;28;20564;-72
2023/08/23 00:23:54;;;;;;;8.98;5.15;;;17.30;99.90;;;;;;5041684;28;20056;-72
2023/08/23 00:26:20;;;;;;;9.40;5.28;;;17.20;99.90;;;;;;5042138;28;20406;-72
2023/08/23 00:28:45;;;;;;;8.85;5.10;;;17.20;99.90;;;;;;5046553;28;20048;-72
2023/08/23 00:31:11;;;;;;;10.18;5.10;;;17.10;99.90;;;;;;5045471;28;20675;-71
2023/08/23 00:33:37;;;;;;;9.52;5.63;;;17.20;99.90;;;;;;5047607;28;20048;-71
2023/08/23 00:36:03;;;;;;;10.60;5.70;;;17.10;99.90;;;;;;5048720;28;20082;-72
2023/08/23 00:38:29;;;;;;;8.50;5.50;;;17.10;99.90;;;;;;5048685;28;20113;-71
2023/08/23 00:40:54;;;;;;;10.35;5.80;;;17.10;99.90;;;;;;5046987;28;20053;-71
2023/08/23 00:43:20;;;;;;;9.32;5.68;;;17.10;99.90;;;;;;5043491;28;20052;-72
2023/08/23 00:45:46;;;;;;;8.15;5.57;;;17.10;99.90;;;;;;5048717;28;20127;-71
2023/08/23 00:48:12;;;;;;;10.65;5.25;;;17.00;99.90;;;;;;5048285;28;20410;-72
2023/08/23 00:50:42;;;;;;;9.90;6.10;;;17.00;99.90;;;;;;5031474;28;20045;-71
2023/08/23 00:53:08;;;;;;;10.93;5.90;;;17.00;99.90;;;;;;5024599;28;20486;-70
2023/08/23 00:55:35;;;;;;;10.38;6.13;;;17.00;99.90;;;;;;5047833;28;20110;-71
2023/08/23 00:58:01;;;;;;;9.60;6.05;;;17.00;99.90;;;;;;5049416;28;20045;-70
2023/08/23 01:00:28;;;;;;;10.02;5.80;;;17.00;99.90;;;;;;5047545;28;20628;-70
2023/08/23 01:02:53;;;;;;;12.82;6.50;;;17.00;99.90;;;;;;5047344;28;20490;-70
2023/08/23 01:05:28;;;;;;;10.15;5.60;;;16.90;99.90;;;;;;5047718;28;20056;-70
2023/08/23 01:08:09;;;;;;;11.20;5.75;;;17.00;99.90;;;;;;5031231;28;20152;-70
2023/08/23 01:10:41;;;;;;;;;;;16.90;99.90;;;;;;5031093;28;20053;-70
2023/08/23 01:13:37;;;;;;;7.85;5.43;;;16.90;99.90;;;;;;5047751;28;19921;-72
2023/08/23 01:16:04;;;;;;;8.05;5.45;;;16.90;99.90;;;;;;5048837;28;20045;-72
2023/08/23 01:18:31;;;;;;;9.55;6.07;;;16.80;99.90;;;;;;5049509;28;20083;-70
2023/08/23 01:21:02;;;;;;;8.85;5.38;;;16.80;99.90;;;;;;5046954;28;20049;-72
2023/08/23 01:23:28;;;;;;;;;;;16.80;99.90;;;;;;5048758;28;20120;-72
2023/08/23 01:25:54;;;;;;;10.20;6.30;;;16.80;99.90;;;;;;5047754;28;20345;-72
2023/08/23 01:28:20;;;;;;;7.70;5.68;;;16.80;99.90;;;;;;5042924;28;20063;-72
2023/08/23 01:30:48;;;;;;;13.70;6.25;;;16.70;99.90;;;;;;5025838;28;20083;-70
2023/08/23 01:33:33;;;;;;;10.27;6.88;;;16.70;99.90;;;;;;5013362;28;20449;-71
2023/08/23 01:36:09;;;;;;;9.90;6.18;;;16.70;99.90;;;;;;5038410;28;20045;-71
2023/08/23 01:38:38;;;;;;;12.82;6.38;;;16.70;99.90;;;;;;5045657;28;20052;-71
2023/08/23 01:41:04;;;;;;;12.35;6.30;;;16.70;99.90;;;;;;5045675;28;20138;-71
2023/08/23 01:43:30;;;;;;;10.60;6.70;;;16.70;99.90;;;;;;5028692;28;20048;-70
2023/08/23 01:45:56;;;;;;;9.82;6.32;;;16.60;99.90;;;;;;5045692;28;20594;-70
2023/08/23 01:48:22;;;;;;;12.68;7.32;;;16.60;99.90;;;;;;5046323;28;20102;-70
2023/08/23 01:50:50;;;;;;;10.82;6.97;;;16.60;99.90;;;;;;5029366;28;20052;-71
2023/08/23 01:53:16;;;;;;;11.23;7.60;;;16.60;99.90;;;;;;5047642;28;20044;-71
2023/08/23 01:55:41;;;;;;;16.38;8.93;;;16.60;99.90;;;;;;5023621;28;20135;-70
2023/08/23 01:58:07;;;;;;;14.38;7.90;;;16.50;99.90;;;;;;5033943;28;20043;-71
2023/08/23 02:00:33;;;;;;;12.70;7.32;;;16.60;99.90;;;;;;5031281;28;20053;-71
2023/08/23 02:02:58;;;;;;;13.57;9.02;;;16.50;99.90;;;;;;5017110;28;20076;-71
2023/08/23 02:05:24;;;;;;;14.82;8.57;;;16.50;99.90;;;;;;5017760;28;20553;-72
2023/08/23 02:07:50;;;;;;;12.82;7.70;;;16.50;99.90;;;;;;5019278;28;20053;-72
2023/08/23 02:10:16;;;;;;;11.38;7.38;;;16.50;99.90;;;;;;5066453;28;20434;-71
2023/08/23 02:12:42;;;;;;;13.02;7.35;;;16.50;99.90;;;;;;5022635;28;20477;-70
2023/08/23 02:15:08;;;;;;;13.20;7.13;;;16.50;99.90;;;;;;5035682;28;20674;-71
2023/08/23 02:17:33;;;;;;;11.30;7.35;;;16.50;99.90;;;;;;5037093;28;20041;-70
2023/08/23 02:19:59;;;;;;;11.85;7.15;;;16.50;99.90;;;;;;5034773;28;20029;-70
2023/08/23 02:22:25;;;;;;;11.73;7.47;;;16.50;99.90;;;;;;5053570;28;20110;-71
2023/08/23 02:24:51;;;;;;;11.98;7.00;;;16.40;99.90;;;;;;5039382;28;20051;-71
2023/08/23 02:27:16;;;;;;;12.70;7.38;;;16.40;99.90;;;;;;5022081;28;20674;-71
2023/08/23 02:29:42;;;;;;;13.48;7.95;;;16.40;99.90;;;;;;5037840;28;20041;-71
2023/08/23 02:32:08;;;;;;;13.35;7.63;;;16.40;99.90;;;;;;5034834;28;20122;-70
2023/08/23 02:34:33;;;;;;;12.10;7.22;;;16.40;99.90;;;;;;5037841;28;20041;-70
2023/08/23 02:36:59;;;;;;;11.32;7.05;;;16.40;99.90;;;;;;5034598;28;20493;-70
2023/08/23 02:39:25;;;;;;;12.20;8.15;;;16.30;99.90;;;;;;5048172;28;20049;-70
2023/08/23 02:41:50;;;;;;;12.38;7.57;;;16.40;99.90;;;;;;5039067;28;20535;-70
2023/08/23 02:44:16;;;;;;;11.88;7.13;;;16.30;99.90;;;;;;5037076;28;20041;-71
2023/08/23 02:46:42;;;;;;;12.52;7.90;;;16.30;99.90;;;;;;5036035;28;20682;-71
2023/08/23 02:49:08;;;;;;;14.23;8.60;;;16.30;99.90;;;;;;5033804;28;20041;-71
2023/08/23 02:51:33;;;;;;;11.90;7.95;;;16.30;99.90;;;;;;5037690;28;20724;-71
2023/08/23 02:53:59;;;;;;;11.25;7.50;;;16.20;99.90;;;;;;5014942;28;20102;-72
2023/08/23 02:56:25;;;;;;;10.82;7.25;;;16.20;99.90;;;;;;5042636;28;20048;-71
2023/08/23 02:58:50;;;;;;;11.02;7.82;;;16.20;99.90;;;;;;5021066;28;20048;-70
2023/08/23 03:01:17;;;;;;;11.32;7.72;;;16.20;99.90;;;;;;5038398;28;20211;-70
2023/08/23 03:03:42;;;;;;;9.88;7.20;;;16.10;99.90;;;;;;5038984;28;20048;-69
2023/08/23 03:06:08;;;;;;;9.32;6.45;;;16.10;99.90;;;;;;5019974;28;20041;-69
2023/08/23 03:08:34;;;;;;;11.73;6.95;;;16.10;99.90;;;;;;5042683;28;20041;-70
2023/08/23 03:11:07;;;;;;;10.70;6.40;;;16.10;99.90;;;;;;5017570;28;20494;-69
2023/08/23 03:13:33;;;;;;;9.77;6.97;;;16.10;99.90;;;;;;5032095;28;20117;-69
2023/08/23 03:16:00;;;;;;;10.63;6.38;;;16.10;99.90;;;;;;5051989;28;20195;-70
2023/08/23 03:18:26;;;;;;;9.73;6.55;;;16.10;99.90;;;;;;5066329;28;20060;-69
2023/08/23 03:20:52;;;;;;;9.07;6.43;;;16.00;99.90;;;;;;5030463;28;20037;-69
2023/08/23 03:23:19;;;;;;;11.07;7.55;;;16.10;99.90;;;;;;5037664;28;20059;-69
2023/08/23 03:25:46;;;;;;;9.98;6.90;;;16.00;99.90;;;;;;5036172;28;20505;-70
2023/08/23 03:28:15;;;;;;;8.88;6.63;;;16.00;99.90;;;;;;5031199;28;20508;-69
2023/08/23 03:30:41;;;;;;;9.25;6.40;;;16.00;99.90;;;;;;5037894;28;20037;-69
2023/08/23 03:33:07;;;;;;;10.38;6.53;;;16.00;99.90;;;;;;5031663;28;20469;-69
2023/08/23 03:35:33;;;;;;;9.52;6.85;;;16.00;99.90;;;;;;5036595;28;20041;-69
2023/08/23 03:38:00;;;;;;;11.60;7.20;;;16.00;99.90;;;;;;5033564;28;20040;-70
2023/08/23 03:40:28;;;;;;;11.15;7.95;;;16.00;99.90;;;;;;5036626;28;20088;-69
2023/08/23 03:42:54;;;;;;;10.15;7.60;;;16.00;99.90;;;;;;5036288;28;20534;-70
2023/08/23 03:45:20;;;;;;;9.85;6.72;;;16.00;99.90;;;;;;5036925;28;20045;-69
2023/08/23 03:47:45;;;;;;;10.73;7.95;;;16.00;99.90;;;;;;5037185;28;20152;-70
2023/08/23 03:50:12;;;;;;;11.55;7.22;;;15.90;99.90;;;;;;5051135;28;20509;-70
2023/08/23 03:52:38;;;;;;;10.18;7.30;;;16.00;99.90;;;;;;5072207;28;20118;-71
2023/08/23 03:55:04;;;;;;;10.55;7.10;;;15.90;99.90;;;;;;5017210;28;20060;-69
2023/08/23 03:57:30;;;;;;;10.00;6.78;;;16.00;99.90;;;;;;5036600;28;20115;-69
2023/08/23 03:59:56;;;;;;;10.43;6.63;;;16.00;99.90;;;;;;5016551;28;20052;-69
2023/08/23 04:02:21;;;;;;;11.13;7.88;;;15.90;99.90;;;;;;5035987;28;20041;-70
2023/08/23 04:04:47;;;;;;;10.00;6.85;;;16.00;99.90;;;;;;5041997;28;20452;-70
2023/08/23 04:07:15;;;;;;;10.10;6.25;;;15.90;99.90;;;;;;5048937;28;20119;-70
2023/08/23 04:09:41;;;;;;;10.35;6.93;;;15.90;99.90;;;;;;5041331;28;20072;-70
2023/08/23 04:12:08;;;;;;;14.95;8.70;;;15.90;99.90;;;;;;5041191;28;20076;-69
2023/08/23 04:14:33;;;;;;;10.35;7.38;;;15.90;99.90;;;;;;5039833;28;20037;-70
2023/08/23 04:16:59;;;;;;;12.50;8.05;;;15.90;99.90;;;;;;5040957;28;20056;-69
2023/08/23 04:19:26;;;;;;;12.68;8.43;;;15.90;99.90;;;;;;5039144;28;20076;-68
2023/08/23 04:21:51;;;;;;;11.95;8.48;;;15.90;99.90;;;;;;5039011;28;20047;-70
2023/08/23 04:24:17;;;;;;;12.98;9.30;;;15.90;99.90;;;;;;5038803;28;20485;-69
2023/08/23 04:26:43;;;;;;;13.68;10.23;;;15.90;99.90;;;;;;5039117;28;20756;-71
2023/08/23 04:29:09;;;;;;;15.85;10.32;;;15.90;99.90;;;;;;5038557;28;20041;-70
2023/08/23 04:31:35;;;;;;;15.88;10.23;;;15.90;99.90;;;;;;5037868;28;20064;-70
2023/08/23 04:34:02;;;;;;;16.98;10.93;;;15.80;99.90;;;;;;5043299;28;20118;-70
2023/08/23 04:36:28;;;;;;;15.23;9.80;;;15.80;99.90;;;;;;5043124;28;20105;-71
2023/08/23 04:38:54;;;;;;;15.10;10.48;;;15.80;99.90;;;;;;5025490;28;20068;-70
2023/08/23 04:41:21;;;;;;;15.88;10.57;;;15.80;99.90;;;;;;5020687;28;20110;-70
2023/08/23 04:43:47;;;;;;;16.48;11.38;;;15.80;99.90;;;;;;5042385;28;20302;-70
2023/08/23 04:46:12;;;;;;;19.42;12.65;;;15.80;99.90;;;;;;5039220;28;20051;-71
2023/08/23 04:48:38;;;;;;;19.13;12.27;;;15.80;99.90;;;;;;5037675;28;20048;-71
2023/08/23 04:51:09;;;;;;;19.73;12.43;;;15.80;99.90;;;;;;5038695;28;20037;-70
2023/08/23 04:53:35;;;;;;;18.02;12.15;;;15.80;99.90;;;;;;5036069;28;20041;-70
2023/08/23 04:56:01;;;;;;;17.98;12.27;;;15.80;99.90;;;;;;5034893;28;20056;-69
2023/08/23 04:58:30;;;;;;;17.95;12.57;;;15.80;99.90;;;;;;5033948;28;20045;-69
2023/08/23 05:01:05;;;;;;;19.42;12.82;;;15.80;99.90;;;;;;5041742;28;20253;-69
2023/08/23 05:03:35;;;;;;;22.35;14.63;;;15.80;99.90;;;;;;5040368;28;20045;-69
2023/08/23 05:06:01;;;;;;;23.55;13.35;;;15.80;99.90;;;;;;5039893;28;20045;-71
2023/08/23 05:08:32;;;;;;;22.15;14.35;;;15.80;99.90;;;;;;5023632;28;20060;-70
2023/08/23 05:10:58;;;;;;;22.20;13.48;;;15.80;99.90;;;;;;5041045;28;20060;-70
2023/08/23 05:13:23;;;;;;;23.70;14.93;;;15.90;99.90;;;;;;5038428;28;20057;-70
2023/08/23 05:15:53;;;;;;;21.23;13.68;;;15.90;99.90;;;;;;5041563;28;20045;-70
2023/08/23 05:18:20;;;;;;;19.80;13.82;;;15.90;99.90;;;;;;5041833;28;20044;-70
2023/08/23 05:20:46;;;;;;;23.40;14.25;;;15.80;99.90;;;;;;5039894;28;20398;-70
2023/08/23 05:23:12;;;;;;;20.55;13.07;;;15.80;99.90;;;;;;5037578;28;20068;-71
2023/08/23 05:25:37;;;;;;;21.15;14.18;;;15.90;99.90;;;;;;5043495;28;20048;-69
2023/08/23 05:28:04;;;;;;;23.15;13.88;;;15.80;99.90;;;;;;5041499;28;20116;-69
2023/08/23 05:30:32;;;;;;;20.65;14.40;;;15.80;99.90;;;;;;5025199;28;20052;-70
2023/08/23 05:32:58;;;;;;;20.25;13.88;;;15.90;99.90;;;;;;5041066;28;20128;-69
2023/08/23 05:35:23;;;;;;;22.20;15.32;;;15.80;99.90;;;;;;5040837;28;20669;-70
2023/08/23 05:37:50;;;;;;;24.02;14.70;;;15.80;99.90;;;;;;5037835;28;20526;-69
2023/08/23 05:40:16;;;;;;;20.52;13.40;;;15.80;99.90;;;;;;5039725;28;20029;-69
2023/08/23 05:42:42;;;;;;;18.23;12.85;;;15.80;99.90;;;;;;5038431;28;20044;-69
2023/08/23 05:45:08;;;;;;;21.58;13.90;;;15.80;99.90;;;;;;5040104;28;20625;-69
2023/08/23 05:47:33;;;;;;;21.42;13.68;;;15.80;99.90;;;;;;5041354;28;20707;-70
2023/08/23 05:49:59;;;;;;;22.60;14.55;;;15.80;99.90;;;;;;5024696;28;20048;-70
2023/08/23 05:52:25;;;;;;;20.20;13.63;;;15.80;99.90;;;;;;5041182;28;20127;-70
2023/08/23 05:54:50;;;;;;;23.67;13.77;;;15.80;99.90;;;;;;5072964;28;20045;-69
2023/08/23 05:57:16;;;;;;;20.25;13.70;;;15.80;99.90;;;;;;5023049;28;20779;-71
2023/08/23 05:59:42;;;;;;;22.92;14.23;;;15.80;99.90;;;;;;5042375;28;20055;-71
2023/08/23 06:02:07;;;;;;;18.38;12.95;;;15.80;99.90;;;;;;5039010;28;20048;-69
2023/08/23 06:04:33;;;;;;;19.40;13.02;;;15.90;99.90;;;;;;5023284;28;20408;-70
2023/08/23 06:06:59;;;;;;;19.20;13.68;;;15.90;99.90;;;;;;5039878;28;20072;-70
2023/08/23 06:09:25;;;;;;;20.35;13.55;;;15.90;99.90;;;;;;5035321;28;20085;-72
2023/08/23 06:11:51;;;;;;;20.67;13.65;;;16.00;99.90;;;;;;5039889;28;20041;-72
2023/08/23 06:14:19;;;;;;;16.88;12.88;;;16.00;99.90;;;;;;5040856;28;20040;-72
2023/08/23 06:16:45;;;;;;;20.02;14.48;;;16.00;99.90;;;;;;5040450;28;20045;-73
2023/08/23 06:19:11;;;;;;;19.80;14.10;;;16.00;99.90;;;;;;5041714;28;20033;-72
2023/08/23 06:21:38;;;;;;;20.65;14.75;;;16.00;99.90;;;;;;5042697;28;20047;-72
2023/08/23 06:24:04;;;;;;;19.25;13.40;;;16.10;99.90;;;;;;5037575;28;20098;-72
2023/08/23 06:26:29;;;;;;;21.17;14.60;;;16.10;99.90;;;;;;5039321;28;20048;-72
2023/08/23 06:28:55;;;;;;;20.70;14.98;;;16.10;99.90;;;;;;5038417;28;20041;-73
2023/08/23 06:31:21;;;;;;;21.70;15.57;;;16.10;99.90;;;;;;5022503;28;20051;-71
2023/08/23 06:33:47;;;;;;;25.33;15.90;;;16.20;99.90;;;;;;5037113;28;20430;-72
2023/08/23 06:36:13;;;;;;;22.65;16.55;;;16.20;99.90;;;;;;5035112;28;20041;-72
2023/08/23 06:38:41;;;;;;;20.17;15.23;;;16.30;99.90;;;;;;5045381;28;20052;-71
2023/08/23 06:41:06;;;;;;;22.42;16.63;;;16.30;99.90;;;;;;5023988;28;20045;-73
2023/08/23 06:43:32;;;;;;;20.70;15.55;;;16.40;99.90;;;;;;5039952;28;20041;-72
2023/08/23 06:45:58;;;;;;;20.30;13.95;;;16.40;99.90;;;;;;5035146;28;20134;-72
2023/08/23 06:48:23;;;;;;;21.35;15.38;;;16.50;99.90;;;;;;5040857;28;20045;-72
2023/08/23 06:50:49;;;;;;;21.98;15.25;;;16.50;99.90;;;;;;5015300;28;20037;-73
2023/08/23 06:53:15;;;;;;;20.73;14.25;;;16.60;99.90;;;;;;5014569;28;20036;-72
2023/08/23 06:55:41;;;;;;;19.63;14.73;;;16.60;99.90;;;;;;5029286;28;20045;-72
2023/08/23 06:58:10;;;;;;;19.05;13.82;;;16.70;99.90;;;;;;5029419;28;20041;-72
2023/08/23 07:00:36;;;;;;;20.00;14.30;;;16.70;99.90;;;;;;5029568;28;20056;-72
2023/08/23 07:03:02;;;;;;;20.88;14.25;;;16.80;99.90;;;;;;5031032;28;20148;-72
2023/08/23 07:05:28;;;;;;;18.13;13.57;;;16.80;99.90;;;;;;5030125;28;20056;-71
2023/08/23 07:07:54;;;;;;;18.63;14.45;;;16.80;99.90;;;;;;5012068;28;20156;-71
2023/08/23 07:10:20;;;;;;;20.20;14.70;;;16.90;99.90;;;;;;5011954;28;20758;-71
2023/08/23 07:12:46;;;;;;;22.83;14.20;;;17.10;99.90;;;;;;5031324;28;20052;-71
2023/08/23 07:15:12;;;;;;;21.33;14.02;;;17.10;99.90;;;;;;5045687;28;20108;-71
2023/08/23 07:17:38;;;;;;;18.77;13.88;;;17.20;99.90;;;;;;5029408;28;20048;-71
2023/08/23 07:20:05;;;;;;;16.38;13.63;;;17.20;99.90;;;;;;5030480;28;20049;-71
2023/08/23 07:22:31;;;;;;;18.90;13.93;;;17.30;99.90;;;;;;5030449;28;20052;-71
2023/08/23 07:24:57;;;;;;;18.42;14.25;;;17.30;99.90;;;;;;5030044;28;20052;-72
2023/08/23 07:27:23;;;;;;;18.10;13.70;;;17.40;99.90;;;;;;5029188;28;20038;-71
2023/08/23 07:29:49;;;;;;;20.15;15.35;;;17.50;99.90;;;;;;5017076;28;20067;-72
2023/08/23 07:32:14;;;;;;;24.48;13.88;;;17.60;99.90;;;;;;5061608;28;20042;-72
2023/08/23 07:34:40;;;;;;;17.25;12.95;;;17.70;99.90;;;;;;5039308;28;20037;-72
2023/08/23 07:37:07;;;;;;;18.48;13.70;;;17.80;99.90;;;;;;5039883;28;20044;-71
2023/08/23 07:39:32;;;;;;;21.25;13.77;;;17.90;99.90;;;;;;5036675;28;20053;-74
2023/08/23 07:41:58;;;;;;;18.42;12.63;;;18.00;99.90;;;;;;5039374;28;20068;-71
2023/08/23 07:44:24;;;;;;;18.10;13.68;;;18.20;99.90;;;;;;5037392;28;20438;-72
2023/08/23 07:46:50;;;;;;;18.23;13.00;;;18.30;99.90;;;;;;5038423;28;20079;-72
2023/08/23 07:49:16;;;;;;;18.88;12.40;;;18.50;99.90;;;;;;5034128;28;20049;-72
2023/08/23 07:51:42;;;;;;;15.43;12.23;;;18.60;99.90;;;;;;5065827;28;20044;-73
2023/08/23 07:54:07;;;;;;;15.38;11.70;;;18.70;99.90;;;;;;5060243;28;20037;-72
2023/08/23 07:56:34;;;;;;;18.02;11.10;;;18.80;99.90;;;;;;5031310;28;20096;-72
2023/08/23 07:58:59;;;;;;;16.15;11.73;;;18.90;99.90;;;;;;5030293;28;20041;-72
2023/08/23 08:01:26;;;;;;;16.60;11.35;;;19.00;99.90;;;;;;5024709;28;20052;-73
2023/08/23 08:03:52;;;;;;;19.10;11.15;;;19.10;99.90;;;;;;5010248;28;20055;-72
2023/08/23 08:06:19;;;;;;;15.07;11.38;;;19.20;99.90;;;;;;5027915;28;20049;-72
2023/08/23 08:08:45;;;;;;;15.25;10.75;;;19.40;99.90;;;;;;5030314;28;20460;-71
2023/08/23 08:11:12;;;;;;;18.75;11.35;;;19.50;99.90;;;;;;5032530;28;20608;-72
2023/08/23 08:13:38;;;;;;;13.82;10.20;;;19.60;99.90;;;;;;5030071;28;20128;-72
2023/08/23 08:16:09;;;;;;;14.82;10.45;;;19.70;99.90;;;;;;5033370;28;20063;-73
2023/08/23 08:18:35;;;;;;;16.45;11.48;;;19.70;99.90;;;;;;5033274;28;20110;-72
2023/08/23 08:21:01;;;;;;;15.77;10.82;;;19.80;99.90;;;;;;5039782;28;20036;-72
2023/08/23 08:23:28;;;;;;;15.10;10.77;;;19.90;99.90;;;;;;5024195;28;20048;-72
2023/08/23 08:25:53;;;;;;;18.42;11.95;;;19.90;99.90;;;;;;5042405;28;20524;-72
2023/08/23 08:28:19;;;;;;;18.75;12.02;;;20.00;99.90;;;;;;5044429;28;20124;-71
2023/08/23 08:30:46;;;;;;;16.13;11.82;;;20.10;99.90;;;;;;5020970;28;20041;-73
2023/08/23 08:33:11;;;;;;;17.20;12.57;;;20.10;99.90;;;;;;5040623;28;20171;-72
2023/08/23 08:35:37;;;;;;;17.25;11.73;;;20.30;99.90;;;;;;5039967;28;20532;-71
2023/08/23 08:38:03;;;;;;;18.25;11.38;;;20.40;99.90;;;;;;5039381;28;20037;-73
2023/08/23 08:40:29;;;;;;;15.52;10.88;;;20.50;99.90;;;;;;5042821;28;20106;-72
2023/08/23 08:42:55;;;;;;;13.98;9.55;;;20.70;99.90;;;;;;5036621;28;20052;-73
2023/08/23 08:45:21;;;;;;;14.52;10.93;;;20.80;99.90;;;;;;5022858;28;20670;-72
2023/08/23 08:47:48;;;;;;;16.17;10.70;;;20.90;99.90;;;;;;5034720;28;20067;-71
2023/08/23 08:50:14;;;;;;;16.80;10.65;;;21.00;99.90;;;;;;5036555;28;20053;-72
2023/08/23 08:52:43;;;;;;;15.38;10.52;;;20.90;99.90;;;;;;5031606;28;20072;-72
2023/08/23 08:55:11;;;;;;;14.73;11.18;;;20.90;99.90;;;;;;5039663;28;20485;-72
2023/08/23 08:57:37;;;;;;;18.55;11.63;;;20.80;99.90;;;;;;5046104;28;20083;-72
2023/08/23 09:00:05;;;;;;;18.50;11.48;;;20.80;99.90;;;;;;5044927;28;20032;-72
2023/08/23 09:02:32;;;;;;;17.67;12.00;;;20.80;99.90;;;;;;5042854;28;20087;-73
2023/08/23 09:04:59;;;;;;;15.02;10.15;;;20.80;99.90;;;;;;5037716;28;20044;-72
2023/08/23 09:07:25;;;;;;;16.13;10.18;;;20.80;99.90;;;;;;5025813;28;20048;-72
2023/08/23 09:09:51;;;;;;;18.10;11.15;;;20.80;99.90;;;;;;5044733;28;20041;-72
2023/08/23 09:12:17;;;;;;;17.33;10.88;;;20.80;99.90;;;;;;5025628;28;20039;-72
2023/08/23 09:14:49;;;;;;;17.23;10.50;;;20.90;99.90;;;;;;5039286;28;20057;-72
2023/08/23 09:17:15;;;;;;;14.95;10.52;;;21.00;99.90;;;;;;5057571;28;20982;-70
2023/08/23 09:19:40;;;;;;;19.15;12.60;;;21.00;99.90;;;;;;5034708;28;20040;-70
2023/08/23 09:22:06;;;;;;;19.77;11.90;;;21.10;99.90;;;;;;5040240;28;20099;-69
2023/08/23 09:24:33;;;;;;;17.23;11.13;;;21.20;99.90;;;;;;5041708;28;20817;-70
2023/08/23 09:26:59;;;;;;;20.60;12.00;;;21.30;99.90;;;;;;5038098;28;20049;-70
2023/08/23 09:29:25;;;;;;;19.95;11.45;;;21.30;99.90;;;;;;5038661;28;20049;-70
2023/08/23 09:31:51;;;;;;;15.68;9.88;;;21.30;99.90;;;;;;5053766;28;20049;-70
2023/08/23 09:34:17;;;;;;;17.00;10.77;;;21.30;99.90;;;;;;5024680;28;20052;-69
2023/08/23 09:36:43;;;;;;;18.75;9.82;;;21.30;99.90;;;;;;5029724;28;20056;-70
2023/08/23 09:39:10;;;;;;;16.80;10.25;;;21.30;99.90;;;;;;5043156;28;20041;-70
2023/08/23 09:41:39;;;;;;;13.85;8.38;;;21.30;99.90;;;;;;5043873;28;20405;-70
2023/08/23 09:44:06;;;;;;;17.13;8.82;;;21.40;99.90;;;;;;5041750;28;20410;-70
2023/08/23 09:46:35;;;;;;;17.20;10.18;;;21.50;99.90;;;;;;5040271;28;20048;-70
2023/08/23 09:49:04;;;;;;;16.77;9.65;;;21.60;99.90;;;;;;5046828;28;20524;-70
2023/08/23 09:51:34;;;;;;;13.98;8.27;;;21.70;99.90;;;;;;5047811;28;20048;-70
2023/08/23 09:54:13;;;;;;;12.83;8.17;;;21.80;99.90;;;;;;5032967;28;20060;-70
2023/08/23 09:56:42;;;;;;;16.85;9.25;;;21.80;99.90;;;;;;5017106;28;20052;-69
2023/08/23 09:59:11;;;;;;;15.02;8.75;;;21.80;99.90;;;;;;5036743;28;20181;-69
2023/08/23 10:01:38;;;;;;;13.43;7.43;;;21.80;99.90;;;;;;5015642;28;20072;-70
2023/08/23 10:04:07;;;;;;;12.00;6.40;;;21.80;99.90;;;;;;5067900;28;20049;-70
2023/08/23 10:06:34;;;;;;;10.85;6.65;;;21.80;99.90;;;;;;5031528;28;20049;-70
2023/08/23 10:09:00;;;;;;;12.32;6.95;;;21.80;99.90;;;;;;5047883;28;20075;-69
2023/08/23 10:11:28;;;;;;;10.35;6.50;;;21.90;99.90;;;;;;5030402;28;20036;-69
2023/08/23 10:13:57;;;;;;;10.88;5.60;;;21.90;99.90;;;;;;5034285;28;20449;-69
2023/08/23 10:16:24;;;;;;;12.77;5.93;;;21.90;99.90;;;;;;5033642;28;20053;-70
2023/08/23 10:18:51;;;;;;;9.50;5.72;;;22.00;99.90;;;;;;5036152;28;20664;-70
2023/08/23 10:21:17;;;;;;;10.20;5.55;;;22.10;99.90;;;;;;5034047;28;20052;-70
2023/08/23 10:23:43;;;;;;;9.02;5.65;;;22.10;99.90;;;;;;5033375;28;20086;-70
2023/08/23 10:26:19;;;;;;;9.90;5.28;;;22.20;99.90;;;;;;5032627;28;20522;-69
2023/08/23 10:28:53;;;;;;;11.25;6.57;;;22.20;99.90;;;;;;5032624;28;20048;-70
2023/08/23 10:31:28;;;;;;;13.60;7.20;;;22.30;99.90;;;;;;5031204;28;20869;-69
2023/08/23 10:33:58;;;;;;;10.57;5.93;;;22.40;99.90;;;;;;5043459;28;20045;-70
2023/08/23 10:36:29;;;;;;;14.30;5.80;;;22.50;99.90;;;;;;5047104;28;20501;-70
2023/08/23 10:38:56;;;;;;;11.57;5.05;;;22.50;99.90;;;;;;5038009;28;20052;-70
2023/08/23 10:41:26;;;;;;;8.63;4.93;;;22.50;99.90;;;;;;5041267;28;20037;-70
2023/08/23 10:43:52;;;;;;;9.02;4.80;;;22.60;99.90;;;;;;5040259;28;20047;-70
2023/08/23 10:46:21;;;;;;;9.10;5.45;;;22.60;99.90;;;;;;5038553;28;20048;-70
2023/08/23 10:48:47;;;;;;;9.60;4.75;;;22.60;99.90;;;;;;5039451;28;20761;-70
2023/08/23 10:51:14;;;;;;;9.75;4.70;;;22.60;99.90;;;;;;5035619;28;20048;-70
2023/08/23 10:53:44;;;;;;;7.50;4.30;;;22.60;99.90;;;;;;5031291;28;20045;-70
2023/08/23 10:56:10;;;;;;;11.17;4.40;;;22.60;99.90;;;;;;5040507;28;20052;-70
2023/08/23 10:58:37;;;;;;;8.02;3.15;;;22.50;99.90;;;;;;5039450;28;20102;-70
2023/08/23 11:01:03;;;;;;;9.65;3.15;;;22.50;99.90;;;;;;5043118;28;20041;-70
2023/08/23 11:03:29;;;;;;;7.35;2.97;;;22.60;99.90;;;;;;5066798;28;20043;-70
2023/08/23 11:05:58;;;;;;;9.82;2.95;;;22.60;99.90;;;;;;5047289;28;20152;-70
2023/08/23 11:08:24;;;;;;;7.78;3.42;;;22.60;99.90;;;;;;5045160;28;20124;-70
2023/08/23 11:10:50;;;;;;;8.63;3.03;;;22.70;99.90;;;;;;5040838;28;20220;-70
2023/08/23 11:13:15;;;;;;;9.60;2.97;;;22.70;99.90;;;;;;5036042;28;20037;-70
2023/08/23 11:15:43;;;;;;;7.88;3.30;;;22.60;99.90;;;;;;5042089;28;20091;-70
2023/08/23 11:18:11;;;;;;;7.82;3.03;;;22.60;99.90;;;;;;5020082;28;20055;-69
2023/08/23 11:20:37;;;;;;;7.63;3.35;;;22.60;99.90;;;;;;5029243;28;20033;-70
2023/08/23 11:23:02;;;;;;;12.55;2.63;;;22.70;99.90;;;;;;5038808;28;20076;-69
2023/08/23 11:25:28;;;;;;;10.10;2.97;;;22.70;99.90;;;;;;5042759;28;20048;-69
2023/08/23 11:27:54;;;;;;;6.93;2.55;;;22.80;99.90;;;;;;5042252;28;20049;-70
2023/08/23 11:30:23;;;;;;;8.98;2.17;;;22.80;99.90;;;;;;5025063;28;20041;-71
2023/08/23 11:32:49;;;;;;;8.02;2.15;;;22.80;99.90;;;;;;5025002;28;20041;-71
2023/08/23 11:35:16;;;;;;;8.20;2.70;;;22.80;99.90;;;;;;5043671;28;20045;-71
2023/08/23 11:37:42;;;;;;;6.63;2.72;;;22.80;99.90;;;;;;5043666;28;20111;-70
2023/08/23 11:40:10;;;;;;;9.15;3.15;;;22.80;99.90;;;;;;5042755;28;20045;-70
2023/08/23 11:42:38;;;;;;;9.13;3.58;;;22.80;99.90;;;;;;5038177;28;20716;-70
2023/08/23 11:45:05;;;;;;;8.60;2.95;;;22.80;99.90;;;;;;5042877;28;20087;-70
2023/08/23 11:47:31;;;;;;;8.00;2.72;;;22.80;99.90;;;;;;5040892;28;20041;-70
2023/08/23 11:49:57;;;;;;;6.35;2.80;;;22.80;99.90;;;;;;5043261;28;20032;-70
2023/08/23 11:52:23;;;;;;;8.65;2.88;;;22.80;99.90;;;;;;5044288;28;20489;-70
2023/08/23 11:54:53;;;;;;;6.70;2.33;;;22.80;99.90;;;;;;5022156;28;20071;-69
2023/08/23 11:57:19;;;;;;;10.40;3.23;;;22.70;99.90;;;;;;5072140;28;20033;-69
2023/08/23 11:59:45;;;;;;;8.75;2.85;;;22.70;99.90;;;;;;5043481;28;20052;-69
2023/08/23 12:02:11;;;;;;;7.25;3.00;;;22.70;99.90;;;;;;5042787;28;20045;-70
2023/08/23 12:04:42;;;;;;;8.07;2.50;;;22.80;99.90;;;;;;5044086;28;20699;-70
2023/08/23 12:07:08;;;;;;;5.82;1.98;;;22.80;99.90;;;;;;5042926;28;20045;-70
2023/08/23 12:09:35;;;;;;;6.20;2.00;;;22.80;99.90;;;;;;5042165;28;20413;-70
2023/08/23 12:12:02;;;;;;;5.43;1.48;;;22.90;99.90;;;;;;5039591;28;20033;-70
2023/08/23 12:14:28;;;;;;;7.03;1.73;;;22.90;99.90;;;;;;5057472;28;20049;-71
2023/08/23 12:16:57;;;;;;;6.88;1.23;;;22.90;99.90;;;;;;5033330;28;20048;-70
2023/08/23 12:19:23;;;;;;;5.03;1.35;;;22.90;99.90;;;;;;5052891;28;20055;-70
2023/08/23 12:21:49;;;;;;;6.07;1.60;;;22.90;99.90;;;;;;5034918;28;20049;-69
2023/08/23 12:24:16;;;;;;;7.10;1.77;;;22.90;99.90;;;;;;5036570;28;20037;-71
2023/08/23 12:26:42;;;;;;;6.47;1.65;;;22.90;99.90;;;;;;5034330;28;20041;-70
2023/08/23 12:29:07;;;;;;;6.75;1.75;;;23.00;99.90;;;;;;5019673;28;20055;-71
2023/08/23 12:31:33;;;;;;;6.22;2.03;;;23.00;99.90;;;;;;5016059;28;20048;-70
2023/08/23 12:33:59;;;;;;;7.93;1.83;;;23.10;99.90;;;;;;5012815;28;20049;-70